Impacts TAF Board
For situational awareness. Not to be used for flight planning purposes.
IDs:

KSTL - St Louis/Lambert Int, MO, US

Issued at 2112 UTC 18 Dec 2018
Updated at 2311 UTC 18 Dec 2018
Potential Impact None Slight Moderate High
Time2251Z 19/00Z 19/01Z 19/02Z 19/03Z 19/04Z 19/05Z 19/06Z 19/07Z 19/08Z 19/09Z 19/10Z 19/11Z 19/12Z>>
Type OBS PRVL PRVL PRVL PRVL PRVL PRVL PRVL PRVL PRVL PRVL PRVL PRVL PRVL
VIS 10 >6 >6 >6 >6 >6 >6 >6 >6 >6 >6 >6 >6 >6
CIG -- -- -- -- -- 250 250 250 250 250 250 250 250 250
Cover FEW FEW FEW FEW FEW BKN BKN BKN BKN BKN BKN BKN BKN BKN
FltCat VFR VFR VFR VFR VFR VFR VFR VFR VFR VFR VFR VFR VFR VFR
WX -- -- -- -- -- -- -- -- -- -- -- -- -- --
WDir 120 140 140 140 140 160 160 160 160 160 160 160 160 160
WSpd 6 7 7 7 7 6 6 6 6 6 6 6 6 6
WGst -- -- -- -- -- -- -- -- -- -- -- -- -- --
Raw TAF
KSTL 182112Z 1821/1924 14007KT P6SM FEW250
  FM190400 16006KT P6SM BKN250
  FM191600 19007KT P6SM SCT180


Raw METAR
KSTL 182251Z 12006KT 10SM FEW150 FEW250 06/M03 A3009 RMK AO2 SLP198 T00561028
KSTL 182151Z 14010KT 10SM FEW250 09/M04 A3008 RMK AO2 SLP194 T00941039
KSTL 182051Z 14007KT 10SM FEW250 10/M03 A3010 RMK AO2 SLP200 T01001033 56023

METAR Board
Radar Display
Forecast Discussion
For situational awareness. Not to be used for flight planning purposes.